Pekin, Indiana
Current Conditions -  °F | °C
As of 2:56 PM on Friday 21 Nov 2014 (Local Time) from KSDF Reporting Station
Clear Clear  
Wind Chill: 38°   Ceiling: Unl
Heat Index: 42°   Visibility: 10mi
Dew Point: 11°   Wind: 7mph
Humidity: 28%   Direction: 120°ESE
Pressure: 30.44"   Gusts: NA
Location:  38.47°N, 86.06°W
Report Text: KSDF 211956Z 12006KT 10SM CLR 06/M12 A3044 RMK AO2 SLP313 T00561117
Loading
Personal Weather Stations






























Interactive Weather Map New forecast layout! Learn more

10-Day Weather Forecast

Advertisements
Track Severe Weather on mobile